createdAt,value
2023-03-03T00:00:26.390Z,49.60
2023-03-03T00:01:53.882Z,50.86
2023-03-03T00:03:17.835Z,52.76
2023-03-03T00:04:53.811Z,52.28
2023-03-03T00:06:38.798Z,48.12
2023-03-03T00:08:02.785Z,50.10
2023-03-03T00:09:36.747Z,46.11
2023-03-03T00:11:06.097Z,47.61
2023-03-03T00:12:30.279Z,44.05
2023-03-03T00:13:59.520Z,45.40
2023-03-03T00:15:21.252Z,47.40
2023-03-03T00:16:56.726Z,47.23
2023-03-03T00:18:18.276Z,47.18
2023-03-03T00:20:00.773Z,45.87
2023-03-03T00:21:37.434Z,49.78
2023-03-03T00:23:12.915Z,48.60
2023-03-03T00:24:57.646Z,51.13
2023-03-03T00:26:51.726Z,50.26
2023-03-03T00:28:25.726Z,46.13
2023-03-03T00:29:54.956Z,52.29
2023-03-03T00:31:19.198Z,53.28
2023-03-03T00:32:56.115Z,51.20
2023-03-03T00:34:42.343Z,47.13
2023-03-03T00:36:27.487Z,42.54
2023-03-03T00:38:04.377Z,40.88
2023-03-03T00:39:28.287Z,44.07
2023-03-03T00:41:14.860Z,42.92
2023-03-03T00:42:48.351Z,42.37
2023-03-03T00:44:33.127Z,41.47
2023-03-03T00:45:55.341Z,43.49
2023-03-03T00:47:41.765Z,47.18
2023-03-03T00:49:22.827Z,46.53
2023-03-03T00:50:47.339Z,44.38
2023-03-03T00:52:32.835Z,46.82
2023-03-03T00:54:25.092Z,47.58
2023-03-03T00:56:05.904Z,46.22
2023-03-03T00:57:39.645Z,40.67
2023-03-03T00:59:24.678Z,42.46
2023-03-03T01:00:58.698Z,43.88
2023-03-03T01:02:57.367Z,46.55
2023-03-03T01:04:49.568Z,44.62
2023-03-03T01:06:22.692Z,44.32
2023-03-03T01:08:08.825Z,42.56
2023-03-03T01:09:43.446Z,43.08
2023-03-03T01:11:31.726Z,41.42
2023-03-03T01:13:07.796Z,38.82
2023-03-03T01:15:02.711Z,41.70
2023-03-03T01:16:47.777Z,40.32
2023-03-03T01:18:28.863Z,45.89
2023-03-03T01:20:13.566Z,40.47
2023-03-03T01:21:56.046Z,42.23
2023-03-03T01:23:41.770Z,42.24
2023-03-03T01:25:15.783Z,40.05
2023-03-03T01:26:49.453Z,38.57
2023-03-03T01:28:15.771Z,39.12
2023-03-03T01:30:01.093Z,37.49
2023-03-03T01:31:34.898Z,37.56
2023-03-03T01:33:11.292Z,36.53
2023-03-03T01:34:52.091Z,35.77
2023-03-03T01:36:37.119Z,34.52
2023-03-03T01:38:10.366Z,36.97
2023-03-03T01:39:32.245Z,34.72
2023-03-03T01:40:56.648Z,35.83
2023-03-03T01:42:30.307Z,33.31
2023-03-03T01:44:15.922Z,32.15
2023-03-03T01:45:58.087Z,36.47
2023-03-03T01:47:43.409Z,33.16
2023-03-03T01:49:17.526Z,35.62
2023-03-03T01:50:51.283Z,33.61
2023-03-03T01:52:27.315Z,35.16
2023-03-03T01:54:12.880Z,35.21
2023-03-03T01:55:54.269Z,32.54
2023-03-03T01:57:27.687Z,32.23
2023-03-03T01:59:13.156Z,32.05
2023-03-03T02:00:47.529Z,34.68
2023-03-03T02:02:12.968Z,33.29
2023-03-03T02:04:01.648Z,35.22
2023-03-03T02:05:49.122Z,37.23
2023-03-03T02:07:34.097Z,36.27
2023-03-03T02:09:07.635Z,34.26
2023-03-03T02:11:01.280Z,35.72
2023-03-03T02:12:50.602Z,32.44
2023-03-03T02:14:26.024Z,32.31
2023-03-03T02:16:02.228Z,33.00
2023-03-03T02:17:47.361Z,34.27
2023-03-03T02:19:11.380Z,31.66
2023-03-03T02:20:56.789Z,32.24
2023-03-03T02:22:30.210Z,33.36
2023-03-03T02:24:24.684Z,32.80
2023-03-03T02:26:12.124Z,30.63
2023-03-03T02:28:06.669Z,33.46
2023-03-03T02:29:52.280Z,33.49
2023-03-03T02:31:45.847Z,31.23
2023-03-03T02:33:21.882Z,30.96
2023-03-03T02:34:50.915Z,32.03
2023-03-03T02:36:15.062Z,31.71
2023-03-03T02:40:01.803Z,33.39
2023-03-03T02:41:55.696Z,31.72
2023-03-03T02:43:43.565Z,33.86
2023-03-03T02:45:36.943Z,32.36
2023-03-03T02:47:12.636Z,33.53
2023-03-03T02:48:46.620Z,34.35
2023-03-03T02:50:15.838Z,33.05
2023-03-03T02:51:55.778Z,32.60
2023-03-03T02:53:31.965Z,33.44
2023-03-03T02:55:17.620Z,32.88
2023-03-03T02:56:53.276Z,32.32
2023-03-03T02:58:48.677Z,30.64
2023-03-03T03:00:22.038Z,30.13
2023-03-03T03:02:07.714Z,30.71
2023-03-03T03:03:38.055Z,34.82
2023-03-03T03:05:14.647Z,33.69
2023-03-03T03:06:51.028Z,28.90
2023-03-03T03:08:19.963Z,30.72
2023-03-03T03:09:55.814Z,32.16
2023-03-03T03:11:43.232Z,33.38
2023-03-03T03:13:37.656Z,30.36
2023-03-03T03:15:32.724Z,30.81
2023-03-03T03:17:13.899Z,29.29
2023-03-03T03:19:08.700Z,32.28
2023-03-03T03:20:50.227Z,32.06
2023-03-03T03:22:47.769Z,33.15
2023-03-03T03:24:20.817Z,33.83
2023-03-03T03:26:11.671Z,33.27
2023-03-03T03:27:59.296Z,31.86
2023-03-03T03:29:35.729Z,31.57
2023-03-03T03:31:10.684Z,32.25
2023-03-03T03:32:47.079Z,34.41
2023-03-03T03:34:41.652Z,34.91
2023-03-03T03:36:14.222Z,32.97
2023-03-03T03:38:01.770Z,36.58
2023-03-03T03:39:42.848Z,35.24
2023-03-03T03:41:27.995Z,34.44
2023-03-03T03:43:14.151Z,34.85
2023-03-03T03:44:59.511Z,33.85
2023-03-03T03:46:50.708Z,35.75
2023-03-03T03:48:19.963Z,33.98
2023-03-03T03:49:56.135Z,30.98
2023-03-03T03:51:42.260Z,32.65
2023-03-03T03:53:17.867Z,36.27
2023-03-03T03:54:43.204Z,32.96
2023-03-03T03:56:37.777Z,33.43
2023-03-03T03:58:32.669Z,34.18
2023-03-03T04:00:22.324Z,34.53
2023-03-03T04:02:07.431Z,37.86
2023-03-03T04:04:02.748Z,35.48
2023-03-03T04:05:36.177Z,35.73
2023-03-03T04:07:12.193Z,35.67
2023-03-03T04:08:54.180Z,32.36
2023-03-03T04:10:28.470Z,32.14
2023-03-03T04:12:02.903Z,37.51
2023-03-03T04:13:40.599Z,38.22
2023-03-03T04:15:25.705Z,66.23
2023-03-03T04:16:49.375Z,40.82
2023-03-03T04:18:26.035Z,52.84
2023-03-03T04:20:02.284Z,46.68
2023-03-03T04:21:44.009Z,48.02
2023-03-03T04:23:17.623Z,45.37
2023-03-03T04:25:03.120Z,45.87
2023-03-03T04:26:56.888Z,49.53
2023-03-03T04:28:30.771Z,42.39
2023-03-03T04:30:07.117Z,39.60
2023-03-03T04:31:40.930Z,38.54
2023-03-03T04:33:34.179Z,38.77
2023-03-03T04:35:27.832Z,38.12
2023-03-03T04:37:04.256Z,39.89
2023-03-03T04:38:46.807Z,39.78
2023-03-03T04:40:29.810Z,46.92
2023-03-03T04:42:15.835Z,35.08
2023-03-03T04:44:01.755Z,32.95
2023-03-03T04:45:43.572Z,33.69
2023-03-03T04:47:28.691Z,37.43
2023-03-03T04:49:14.219Z,35.89
2023-03-03T04:50:48.879Z,46.05
2023-03-03T04:52:21.888Z,37.35
2023-03-03T04:53:43.972Z,38.72
2023-03-03T04:55:17.499Z,35.63
2023-03-03T04:56:54.117Z,37.34
2023-03-03T04:58:36.822Z,43.71
2023-03-03T05:00:23.597Z,37.95
2023-03-03T05:02:09.118Z,50.75
2023-03-03T05:03:45.205Z,49.88
2023-03-03T05:05:19.268Z,42.13
2023-03-03T05:07:05.071Z,36.73
2023-03-03T05:08:50.606Z,33.03
2023-03-03T05:10:44.254Z,34.12
2023-03-03T05:12:37.826Z,75.27
2023-03-03T05:14:31.697Z,48.30
2023-03-03T05:16:05.844Z,51.70
2023-03-03T05:17:51.584Z,42.26
2023-03-03T05:19:44.181Z,43.21
2023-03-03T05:21:17.921Z,43.44
2023-03-03T05:23:05.025Z,43.98
2023-03-03T05:24:58.343Z,40.09
2023-03-03T05:26:31.948Z,36.71
2023-03-03T05:28:05.319Z,37.72
2023-03-03T05:29:50.389Z,37.04
2023-03-03T05:31:31.500Z,42.97
2023-03-03T05:33:16.705Z,48.25
2023-03-03T05:34:52.502Z,50.42
2023-03-03T05:36:34.022Z,57.35
2023-03-03T05:38:07.714Z,46.63
2023-03-03T05:40:01.217Z,39.59
2023-03-03T05:41:45.082Z,41.19
2023-03-03T05:43:39.684Z,48.36
2023-03-03T05:45:24.933Z,40.74
2023-03-03T05:47:10.002Z,43.75
2023-03-03T05:48:46.098Z,45.35
2023-03-03T05:50:35.455Z,78.22
2023-03-03T05:52:09.281Z,93.02
2023-03-03T05:54:02.889Z,57.14
2023-03-03T05:55:53.682Z,43.39
2023-03-03T05:57:46.950Z,39.58
2023-03-03T05:59:36.703Z,42.33
2023-03-03T06:01:22.069Z,40.65
2023-03-03T06:03:07.483Z,45.07
2023-03-03T06:05:01.775Z,99.72
2023-03-03T06:06:56.782Z,60.38
2023-03-03T06:08:32.736Z,61.69
2023-03-03T06:10:11.332Z,40.36
2023-03-03T06:12:04.748Z,43.01
2023-03-03T06:13:46.139Z,42.68
2023-03-03T06:15:27.179Z,41.36
2023-03-03T06:17:14.267Z,50.32
2023-03-03T06:19:08.554Z,50.56
2023-03-03T06:20:57.890Z,58.41
2023-03-03T06:22:39.620Z,45.42
2023-03-03T06:24:15.750Z,50.32
2023-03-03T06:26:10.500Z,47.56
2023-03-03T06:27:47.182Z,47.39
2023-03-03T06:29:40.596Z,48.48
2023-03-03T06:31:14.700Z,41.95
2023-03-03T06:32:59.844Z,63.89
2023-03-03T06:34:33.818Z,59.26
2023-03-03T06:36:07.375Z,50.27
2023-03-03T06:37:53.724Z,46.06
2023-03-03T06:39:35.718Z,50.57
2023-03-03T06:41:09.861Z,69.71
2023-03-03T06:43:03.838Z,66.95
2023-03-03T06:44:40.374Z,56.80
2023-03-03T06:46:25.454Z,56.01
2023-03-03T06:47:58.517Z,54.15
2023-03-03T06:49:30.309Z,50.51
2023-03-03T06:51:15.836Z,56.71
2023-03-03T06:52:38.244Z,44.02
2023-03-03T06:54:27.319Z,49.11
2023-03-03T06:56:14.850Z,89.92
2023-03-03T06:58:01.244Z,47.60
2023-03-03T06:59:38.100Z,54.96
2023-03-03T07:01:23.297Z,55.99
2023-03-03T07:02:56.976Z,44.02
2023-03-03T07:04:49.807Z,43.94
2023-03-03T07:06:26.976Z,48.08
2023-03-03T07:08:00.144Z,51.67
2023-03-03T07:09:45.617Z,44.42
2023-03-03T07:11:21.466Z,42.93
2023-03-03T07:13:07.187Z,42.91
2023-03-03T07:14:39.198Z,42.57
2023-03-03T07:16:15.115Z,41.40
2023-03-03T07:17:55.607Z,47.39
2023-03-03T07:19:43.718Z,48.22
2023-03-03T07:21:17.676Z,53.58
2023-03-03T07:23:11.544Z,44.78
2023-03-03T07:24:45.118Z,46.95
2023-03-03T07:26:26.511Z,46.83
2023-03-03T07:28:00.175Z,47.50
2023-03-03T07:29:34.311Z,43.07
2023-03-03T07:31:07.740Z,46.62
2023-03-03T07:32:59.167Z,47.82
2023-03-03T07:34:35.626Z,47.33
2023-03-03T07:36:16.765Z,47.83
2023-03-03T07:38:03.320Z,42.63
2023-03-03T07:39:35.278Z,46.08
2023-03-03T07:41:08.608Z,43.77
2023-03-03T07:42:44.559Z,42.29
2023-03-03T07:44:40.351Z,44.33
2023-03-03T07:46:02.937Z,41.97
2023-03-03T07:47:27.799Z,44.72
2023-03-03T07:49:13.109Z,42.83
2023-03-03T07:51:02.212Z,43.11
2023-03-03T07:52:52.686Z,46.03
2023-03-03T07:54:29.399Z,38.59
2023-03-03T07:56:11.007Z,40.46
2023-03-03T07:57:59.841Z,36.86
2023-03-03T07:59:34.581Z,37.97
2023-03-03T08:01:19.652Z,36.29
2023-03-03T08:03:09.379Z,44.53
2023-03-03T08:04:54.792Z,36.38
2023-03-03T08:06:38.252Z,36.15
2023-03-03T08:08:24.346Z,35.10
2023-03-03T08:10:10.175Z,39.01
2023-03-03T08:11:55.723Z,36.05
2023-03-03T08:13:31.786Z,37.93
2023-03-03T08:15:25.225Z,41.35
2023-03-03T08:17:11.563Z,37.14
2023-03-03T08:18:56.172Z,39.04
2023-03-03T08:20:47.353Z,36.24
2023-03-03T08:22:43.644Z,37.24
2023-03-03T08:24:38.573Z,36.89
2023-03-03T08:26:20.552Z,36.57
2023-03-03T08:28:06.265Z,34.57
2023-03-03T08:29:54.461Z,35.55
2023-03-03T08:31:48.532Z,35.48
2023-03-03T08:33:41.825Z,38.64
2023-03-03T08:35:31.101Z,36.40
2023-03-03T08:37:04.289Z,35.68
2023-03-03T08:38:54.605Z,39.73
2023-03-03T08:40:47.976Z,39.49
2023-03-03T08:42:35.496Z,36.86
2023-03-03T08:44:29.610Z,35.62
2023-03-03T08:46:14.998Z,41.94
2023-03-03T08:48:09.261Z,37.21
2023-03-03T08:49:54.644Z,40.92
2023-03-03T08:51:48.612Z,34.97
2023-03-03T08:53:42.602Z,31.81
2023-03-03T08:55:36.821Z,32.56
2023-03-03T08:57:22.529Z,32.26
2023-03-03T08:59:02.212Z,33.11
2023-03-03T09:00:51.150Z,37.81
2023-03-03T09:02:46.116Z,35.97
2023-03-03T09:04:21.949Z,31.57
2023-03-03T09:06:09.509Z,32.81
2023-03-03T09:07:55.666Z,33.95
2023-03-03T09:09:50.705Z,32.93
2023-03-03T09:11:45.740Z,33.86
2023-03-03T09:13:09.347Z,35.38
2023-03-03T09:14:31.550Z,37.68
2023-03-03T09:15:55.827Z,32.20
2023-03-03T09:17:17.895Z,33.67
2023-03-03T09:18:39.744Z,37.46
2023-03-03T09:20:02.836Z,34.75
2023-03-03T09:21:24.545Z,30.48
2023-03-03T09:22:46.604Z,33.72
2023-03-03T09:24:08.814Z,27.49
2023-03-03T09:25:42.370Z,29.18
2023-03-03T09:27:16.252Z,29.66
2023-03-03T09:29:02.249Z,33.18
2023-03-03T09:30:23.990Z,32.58
2023-03-03T09:32:02.181Z,35.86
2023-03-03T09:33:39.302Z,30.71
2023-03-03T09:35:11.668Z,31.18
2023-03-03T09:36:33.686Z,30.52
2023-03-03T09:38:05.680Z,30.86
2023-03-03T09:39:41.611Z,33.22
2023-03-03T09:41:15.366Z,32.18
2023-03-03T09:42:51.446Z,30.38
2023-03-03T09:44:28.959Z,32.37
2023-03-03T09:46:04.835Z,33.83
2023-03-03T09:47:59.685Z,33.22
2023-03-03T09:49:33.212Z,32.41
2023-03-03T09:51:09.323Z,30.65
2023-03-03T09:53:01.297Z,31.48
2023-03-03T09:54:56.623Z,29.72
2023-03-03T09:56:51.033Z,31.97
2023-03-03T09:58:31.659Z,30.85
2023-03-03T10:00:17.791Z,33.39
2023-03-03T10:01:42.284Z,28.78
2023-03-03T10:03:29.725Z,33.81
2023-03-03T10:05:16.601Z,29.50
2023-03-03T10:07:01.734Z,30.59
2023-03-03T10:08:42.941Z,30.78
2023-03-03T10:10:07.813Z,31.39
2023-03-03T10:11:52.573Z,29.03
2023-03-03T10:13:34.384Z,31.90
2023-03-03T10:15:19.943Z,29.09
2023-03-03T10:17:04.790Z,30.53
2023-03-03T10:18:58.432Z,33.76
2023-03-03T10:20:37.480Z,36.68
2023-03-03T10:22:21.700Z,45.32
2023-03-03T10:24:07.616Z,43.76
2023-03-03T10:26:01.255Z,32.42
2023-03-03T10:27:34.762Z,31.53
2023-03-03T10:29:08.620Z,28.02
2023-03-03T10:30:54.573Z,26.21
2023-03-03T10:32:45.516Z,31.14
2023-03-03T10:34:30.781Z,30.83
2023-03-03T10:36:13.247Z,29.55
2023-03-03T10:37:35.643Z,29.38
2023-03-03T10:39:11.657Z,32.33
2023-03-03T10:41:00.376Z,28.40
2023-03-03T10:42:46.541Z,31.15
2023-03-03T10:44:32.668Z,33.27
2023-03-03T10:46:18.202Z,30.89
2023-03-03T10:47:53.061Z,28.15
2023-03-03T10:49:46.736Z,31.71
2023-03-03T10:51:27.992Z,34.38
2023-03-03T10:53:02.139Z,34.07
2023-03-03T10:54:35.938Z,34.18
2023-03-03T10:56:17.286Z,33.51
2023-03-03T10:58:06.196Z,31.14
2023-03-03T10:59:35.753Z,31.28
2023-03-03T11:01:12.428Z,33.23
2023-03-03T11:02:59.808Z,33.85
2023-03-03T11:04:33.410Z,33.92
2023-03-03T11:06:07.801Z,36.83
2023-03-03T11:07:59.707Z,38.36
2023-03-03T11:09:42.194Z,37.42
2023-03-03T11:11:17.878Z,36.48
2023-03-03T11:13:06.540Z,33.96
2023-03-03T11:14:53.431Z,34.42
2023-03-03T11:16:37.373Z,34.70
2023-03-03T11:18:25.789Z,28.35
2023-03-03T11:20:11.616Z,26.53
2023-03-03T11:21:47.016Z,30.02
2023-03-03T11:23:18.278Z,30.82
2023-03-03T11:25:03.572Z,33.60
2023-03-03T11:26:57.517Z,34.03
2023-03-03T11:28:31.199Z,33.54
2023-03-03T11:30:16.253Z,32.58
2023-03-03T11:32:02.316Z,33.06
2023-03-03T11:33:57.577Z,31.58
2023-03-03T11:35:34.117Z,33.83
2023-03-03T11:37:07.705Z,35.63
2023-03-03T11:38:53.569Z,31.18
2023-03-03T11:40:27.611Z,31.54
2023-03-03T11:42:09.713Z,32.31
2023-03-03T11:43:43.947Z,31.80
2023-03-03T11:45:13.566Z,32.28
2023-03-03T11:46:45.754Z,30.40
2023-03-03T11:48:08.997Z,33.54
2023-03-03T11:49:54.172Z,33.68
2023-03-03T11:51:31.501Z,32.00
2023-03-03T11:53:16.639Z,34.17
2023-03-03T11:54:50.748Z,33.27
2023-03-03T11:56:27.023Z,37.09
2023-03-03T11:58:08.890Z,35.91
2023-03-03T11:59:50.415Z,40.48
2023-03-03T12:01:12.785Z,34.28
2023-03-03T12:03:06.440Z,35.13
2023-03-03T12:04:42.454Z,34.83
2023-03-03T12:06:06.376Z,37.05
2023-03-03T12:07:48.883Z,37.26
2023-03-03T12:09:30.253Z,38.27
2023-03-03T12:11:15.288Z,41.32
2023-03-03T12:12:49.625Z,38.32
2023-03-03T12:14:35.070Z,36.58
2023-03-03T12:16:16.219Z,37.21
2023-03-03T12:17:50.716Z,36.12
2023-03-03T12:19:27.670Z,34.14
2023-03-03T12:21:14.156Z,36.29
2023-03-03T12:23:06.474Z,39.64
2023-03-03T12:24:41.432Z,33.04
2023-03-03T12:26:26.726Z,32.12
2023-03-03T12:28:14.192Z,31.81
2023-03-03T12:29:38.854Z,33.68
2023-03-03T12:31:14.774Z,42.25
2023-03-03T12:33:09.595Z,36.94
2023-03-03T12:37:03.686Z,34.84
2023-03-03T12:38:57.260Z,31.94
2023-03-03T12:40:21.818Z,38.91
2023-03-03T12:42:11.016Z,38.82
2023-03-03T12:43:51.823Z,38.01
2023-03-03T12:45:40.152Z,37.84
2023-03-03T12:47:30.306Z,37.33
2023-03-03T12:49:15.508Z,40.51
2023-03-03T12:51:02.211Z,35.92
2023-03-03T12:52:43.190Z,32.50
2023-03-03T12:54:19.039Z,34.79
2023-03-03T12:56:04.007Z,33.37
2023-03-03T12:57:49.330Z,34.18
2023-03-03T12:59:43.396Z,33.47
2023-03-03T13:01:16.788Z,33.75
2023-03-03T13:02:59.119Z,32.80
2023-03-03T13:04:23.253Z,34.60
2023-03-03T13:06:04.017Z,34.33
2023-03-03T13:07:38.208Z,32.88
2023-03-03T13:09:24.077Z,32.76
2023-03-03T13:11:10.241Z,34.50
2023-03-03T13:12:55.960Z,38.10
2023-03-03T13:14:17.810Z,37.52
2023-03-03T13:16:06.137Z,37.34
2023-03-03T13:17:49.508Z,31.62
2023-03-03T13:19:25.574Z,30.89
2023-03-03T13:21:11.637Z,30.53
2023-03-03T13:22:57.716Z,27.67
2023-03-03T13:24:43.999Z,28.55
2023-03-03T13:26:30.835Z,29.18
2023-03-03T13:28:08.644Z,27.77
2023-03-03T13:30:58.360Z,28.22
2023-03-03T13:32:53.290Z,27.15
2023-03-03T13:34:46.537Z,23.97
2023-03-03T13:36:40.075Z,24.53
2023-03-03T13:38:26.197Z,25.98
2023-03-03T13:40:08.530Z,26.17
2023-03-03T13:41:50.297Z,27.01
2023-03-03T13:43:26.514Z,25.88
2023-03-03T13:45:12.350Z,25.78
2023-03-03T13:47:06.131Z,29.36
2023-03-03T13:48:49.968Z,31.42
2023-03-03T13:50:35.700Z,28.98
2023-03-03T13:52:24.620Z,30.20
2023-03-03T13:53:58.218Z,25.28
2023-03-03T13:55:21.624Z,32.02
2023-03-03T13:57:03.892Z,30.58
2023-03-03T13:58:41.036Z,31.15
2023-03-03T14:00:05.518Z,32.10
2023-03-03T14:01:41.483Z,31.84
2023-03-03T14:03:03.412Z,30.06
2023-03-03T14:04:33.171Z,34.04
2023-03-03T14:05:57.384Z,34.62
2023-03-03T14:07:52.565Z,31.40
2023-03-03T14:09:42.591Z,34.55
2023-03-03T14:11:15.991Z,30.21
2023-03-03T14:12:57.889Z,31.62
2023-03-03T14:14:33.512Z,29.87
2023-03-03T14:16:07.194Z,30.42
2023-03-03T14:17:41.072Z,36.92
2023-03-03T14:19:27.639Z,34.63
2023-03-03T14:21:13.398Z,29.98
2023-03-03T14:23:01.881Z,29.55
2023-03-03T14:24:47.593Z,27.75
2023-03-03T14:26:23.515Z,26.94
2023-03-03T14:28:09.282Z,23.67
2023-03-03T14:30:04.670Z,21.78
2023-03-03T14:31:47.205Z,25.03
2023-03-03T14:33:41.005Z,31.71
2023-03-03T14:35:26.437Z,29.12
2023-03-03T14:37:12.262Z,29.97
2023-03-03T14:38:58.869Z,28.03
2023-03-03T14:40:53.710Z,25.20
2023-03-03T14:42:36.600Z,27.53
2023-03-03T14:44:31.579Z,28.17
2023-03-03T14:46:16.637Z,28.15
2023-03-03T14:47:51.487Z,24.88
2023-03-03T14:49:24.986Z,26.48
2023-03-03T14:51:08.569Z,30.58
2023-03-03T14:53:02.466Z,29.61
2023-03-03T14:54:48.387Z,31.68
2023-03-03T14:56:35.526Z,25.30
2023-03-03T14:58:22.628Z,36.46
2023-03-03T15:00:07.989Z,26.75
2023-03-03T15:01:44.654Z,25.83
2023-03-03T15:03:18.537Z,28.42
2023-03-03T15:04:52.000Z,33.36
2023-03-03T15:06:25.704Z,33.56
2023-03-03T15:08:10.526Z,36.13
2023-03-03T15:09:55.651Z,27.15
2023-03-03T15:11:37.040Z,25.94
2023-03-03T15:13:11.120Z,24.32
2023-03-03T15:14:56.746Z,25.93
2023-03-03T15:16:30.316Z,26.28
2023-03-03T15:18:15.204Z,23.35
2023-03-03T15:20:06.627Z,24.90
2023-03-03T15:21:40.079Z,26.68
2023-03-03T15:23:01.928Z,25.74
2023-03-03T15:24:56.617Z,28.94
2023-03-03T15:26:20.926Z,25.96
2023-03-03T15:28:06.252Z,26.61
2023-03-03T15:29:51.567Z,21.81
2023-03-03T15:31:45.125Z,20.28
2023-03-03T15:33:30.512Z,23.72
2023-03-03T15:35:14.332Z,26.72
2023-03-03T15:37:00.542Z,26.96
2023-03-03T15:38:46.576Z,26.29
2023-03-03T15:40:28.565Z,25.49
2023-03-03T15:42:02.312Z,27.25
2023-03-03T15:43:48.573Z,36.68
2023-03-03T15:45:41.898Z,34.79
2023-03-03T15:47:35.504Z,30.22
2023-03-03T15:49:16.178Z,27.61
2023-03-03T15:50:50.610Z,30.51
2023-03-03T15:52:33.339Z,32.79
2023-03-03T15:54:26.926Z,27.93
2023-03-03T15:56:11.926Z,29.92
2023-03-03T15:57:50.117Z,28.20
2023-03-03T15:59:35.671Z,25.38
2023-03-03T16:01:22.456Z,27.58
2023-03-03T16:03:07.821Z,26.51
2023-03-03T16:04:51.564Z,26.23
2023-03-03T16:06:46.619Z,34.08
2023-03-03T16:08:20.230Z,28.54
2023-03-03T16:09:53.950Z,27.51
2023-03-03T16:11:28.537Z,26.18
2023-03-03T16:13:13.985Z,28.44
2023-03-03T16:14:59.641Z,26.61
2023-03-03T16:16:28.923Z,28.21
2023-03-03T16:18:13.842Z,27.98
2023-03-03T16:19:47.940Z,27.26
2023-03-03T16:21:17.824Z,26.52
2023-03-03T16:23:09.151Z,26.22
2023-03-03T16:24:45.902Z,26.45
2023-03-03T16:26:10.005Z,27.18
2023-03-03T16:27:51.069Z,25.00
2023-03-03T16:29:44.523Z,24.18
2023-03-03T16:31:18.327Z,26.37
2023-03-03T16:33:04.581Z,23.90
2023-03-03T16:34:43.087Z,38.93
2023-03-03T16:36:04.721Z,31.69
2023-03-03T16:37:50.566Z,29.22
2023-03-03T16:39:31.507Z,30.04
2023-03-03T16:41:16.842Z,29.78
2023-03-03T16:42:52.605Z,36.39
2023-03-03T16:44:24.417Z,31.64
2023-03-03T16:46:06.284Z,29.10
2023-03-03T16:47:40.653Z,32.03
2023-03-03T16:49:14.197Z,31.47
2023-03-03T16:50:56.132Z,32.38
2023-03-03T16:52:31.371Z,30.44
2023-03-03T16:54:04.826Z,28.88
2023-03-03T16:55:38.497Z,26.53
2023-03-03T16:57:02.777Z,25.76
2023-03-03T16:58:58.596Z,29.37
2023-03-03T17:00:53.574Z,37.60
2023-03-03T17:02:27.261Z,38.46
2023-03-03T17:04:03.530Z,32.13
2023-03-03T17:05:45.049Z,27.37
2023-03-03T17:07:11.333Z,26.21
2023-03-03T17:11:20.618Z,25.56
2023-03-03T17:13:05.414Z,31.61
2023-03-03T17:14:27.654Z,32.14
2023-03-03T17:16:08.500Z,31.76
2023-03-03T17:20:19.455Z,38.18
2023-03-03T17:21:43.550Z,34.29
2023-03-03T17:23:28.855Z,31.51
2023-03-03T17:25:09.499Z,35.81
2023-03-03T17:26:53.988Z,30.16
2023-03-03T17:28:29.172Z,41.44
2023-03-03T17:30:05.760Z,34.40
2023-03-03T17:31:39.267Z,31.26
2023-03-03T17:33:24.595Z,33.25
2023-03-03T17:35:09.408Z,34.49
2023-03-03T17:36:57.489Z,33.97
2023-03-03T17:38:45.924Z,33.80
2023-03-03T17:40:39.578Z,34.85
2023-03-03T17:42:24.724Z,32.66
2023-03-03T17:44:10.590Z,38.04
2023-03-03T17:45:59.264Z,33.28
2023-03-03T17:47:41.070Z,34.18
2023-03-03T17:49:21.704Z,28.33
2023-03-03T17:51:05.276Z,26.89
2023-03-03T17:52:31.575Z,28.60
2023-03-03T17:54:07.567Z,30.39
2023-03-03T17:55:36.656Z,29.41
2023-03-03T17:57:03.112Z,28.06
2023-03-03T17:58:48.864Z,28.72
2023-03-03T18:00:29.151Z,32.77
2023-03-03T18:01:58.510Z,32.77
2023-03-03T18:03:34.251Z,34.47
2023-03-03T18:05:08.042Z,28.16
2023-03-03T18:06:44.274Z,29.78
2023-03-03T18:08:30.498Z,30.22
2023-03-03T18:10:00.307Z,31.78
2023-03-03T18:11:22.128Z,28.83
2023-03-03T18:13:03.081Z,28.84
2023-03-03T18:14:37.020Z,22.18
2023-03-03T18:16:12.398Z,27.36
2023-03-03T18:18:07.628Z,36.51
2023-03-03T18:19:58.569Z,37.14
2023-03-03T18:21:50.573Z,32.17
2023-03-03T18:23:34.349Z,28.08
2023-03-03T18:25:07.637Z,32.02
2023-03-03T18:26:56.443Z,31.29
2023-03-03T18:28:18.686Z,30.26
2023-03-03T18:30:03.791Z,31.72
2023-03-03T18:31:54.272Z,42.09
2023-03-03T18:33:26.439Z,40.88
2023-03-03T18:35:03.302Z,48.78
2023-03-03T18:36:53.612Z,41.08
2023-03-03T18:38:34.864Z,38.23
2023-03-03T18:40:08.596Z,33.94
2023-03-03T18:41:55.201Z,29.20
2023-03-03T18:43:28.675Z,34.40
2023-03-03T18:44:55.067Z,33.73
2023-03-03T18:46:19.185Z,34.77
2023-03-03T18:48:04.077Z,33.98
2023-03-03T18:49:25.976Z,34.40
2023-03-03T18:51:01.634Z,33.52
2023-03-03T18:52:43.564Z,36.71
2023-03-03T18:54:17.238Z,37.59
2023-03-03T18:55:46.958Z,42.21
2023-03-03T18:57:11.171Z,32.17
2023-03-03T18:58:44.983Z,40.58
2023-03-03T19:00:26.657Z,52.56
2023-03-03T19:02:04.418Z,37.60
2023-03-03T19:03:45.504Z,45.65
2023-03-03T19:05:07.469Z,37.41
2023-03-03T19:06:43.663Z,31.49
2023-03-03T19:08:28.900Z,33.45
2023-03-03T19:10:14.469Z,32.77
2023-03-03T19:11:56.852Z,36.81
2023-03-03T19:13:33.581Z,50.60
2023-03-03T19:15:06.760Z,49.07
2023-03-03T19:16:52.446Z,31.20
2023-03-03T19:18:21.370Z,31.65
2023-03-03T19:20:06.421Z,42.19
2023-03-03T19:21:53.133Z,36.24
2023-03-03T19:23:22.194Z,34.76
2023-03-03T19:25:06.296Z,44.89
2023-03-03T19:26:52.040Z,40.12
2023-03-03T19:28:46.654Z,45.78
2023-03-03T19:30:23.890Z,45.99
2023-03-03T19:31:59.831Z,44.98
2023-03-03T19:33:57.105Z,44.75
2023-03-03T19:35:40.690Z,31.96
2023-03-03T19:37:26.417Z,37.46
2023-03-03T19:39:00.208Z,49.11
2023-03-03T19:40:58.218Z,37.75
2023-03-03T19:42:34.225Z,34.93
2023-03-03T19:44:19.296Z,33.78
2023-03-03T19:46:04.457Z,36.25
2023-03-03T19:47:38.177Z,30.39
2023-03-03T19:49:11.742Z,31.77
2023-03-03T19:50:54.529Z,33.56
2023-03-03T19:52:38.040Z,33.44
2023-03-03T19:54:23.320Z,36.93
2023-03-03T19:56:08.029Z,38.98
2023-03-03T19:57:56.514Z,35.85
2023-03-03T19:59:28.491Z,42.35
2023-03-03T20:01:13.673Z,35.93
2023-03-03T20:02:59.497Z,34.39
2023-03-03T20:04:54.584Z,46.08
2023-03-03T20:06:40.354Z,41.89
2023-03-03T20:08:16.713Z,39.33
2023-03-03T20:09:53.339Z,42.08
2023-03-03T20:11:38.534Z,37.71
2023-03-03T20:13:12.106Z,37.52
2023-03-03T20:14:57.840Z,34.10
2023-03-03T20:16:42.668Z,34.43
2023-03-03T20:18:27.288Z,33.74
2023-03-03T20:19:58.869Z,35.65
2023-03-03T20:21:33.094Z,37.99
2023-03-03T20:23:18.077Z,28.91
2023-03-03T20:24:51.993Z,33.75
2023-03-03T20:26:35.576Z,33.78
2023-03-03T20:28:30.572Z,32.41
2023-03-03T20:30:11.339Z,57.34
2023-03-03T20:31:58.972Z,36.01
2023-03-03T20:33:48.258Z,34.53
2023-03-03T20:35:25.560Z,28.16
2023-03-03T20:37:06.402Z,36.81
2023-03-03T20:38:42.319Z,44.09
2023-03-03T20:40:27.445Z,84.86
2023-03-03T20:42:12.203Z,37.47
2023-03-03T20:43:45.792Z,34.73
2023-03-03T20:45:21.301Z,85.79
2023-03-03T20:47:01.913Z,42.49
2023-03-03T20:48:56.529Z,48.66
2023-03-03T20:50:37.574Z,36.31
2023-03-03T20:52:10.891Z,37.13
2023-03-03T20:53:47.564Z,50.87
2023-03-03T20:55:41.142Z,55.19
2023-03-03T20:57:05.300Z,97.69
2023-03-03T20:58:29.575Z,94.50
2023-03-03T20:59:53.563Z,61.74
2023-03-03T21:01:30.542Z,37.11
2023-03-03T21:03:06.205Z,30.75
2023-03-03T21:04:30.735Z,32.54
2023-03-03T21:06:15.675Z,30.29
2023-03-03T21:08:09.171Z,29.28
2023-03-03T21:10:01.444Z,27.15
2023-03-03T21:11:56.564Z,27.91
2023-03-03T21:13:37.169Z,34.01
2023-03-03T21:15:12.696Z,31.02
2023-03-03T21:16:53.957Z,33.03
2023-03-03T21:18:30.035Z,33.47
2023-03-03T21:20:10.763Z,33.26
2023-03-03T21:22:00.823Z,36.38
2023-03-03T21:23:47.057Z,37.26
2023-03-03T21:25:20.438Z,39.70
2023-03-03T21:26:51.919Z,36.25
2023-03-03T21:28:27.349Z,33.85
2023-03-03T21:30:00.611Z,33.97
2023-03-03T21:31:43.551Z,37.33
2023-03-03T21:33:37.051Z,36.01
2023-03-03T21:35:10.751Z,33.74
2023-03-03T21:36:44.522Z,32.80
2023-03-03T21:38:20.575Z,35.58
2023-03-03T21:40:05.701Z,44.04
2023-03-03T21:41:51.013Z,39.38
2023-03-03T21:43:31.776Z,35.42
2023-03-03T21:45:01.023Z,30.68
2023-03-03T21:46:34.624Z,39.17
2023-03-03T21:48:00.677Z,36.78